Leland, Mississippi
Current Conditions -  °F | °C
As of 12:53 PM on Friday 31 Oct 2014 (Local Time) from KGLH Reporting Station
Few Clouds Few Clouds  
Wind Chill: 64°   Ceiling: Unl
Heat Index: 64°   Visibility: 10mi
Dew Point: 46°   Wind: 23mph
Humidity: 52%   Direction: 350°N
Pressure: 30.13"   Gusts: 30mph
Location:  33.4°N, 90.9°W
Report Text: KGLH 311753Z AUTO 35020G26KT 10SM FEW036 18/08 A3013 RMK AO2 PK WND 36028/1729 SLP209 T01780078 10183 20117 51008
Loading
Personal Weather Stations






























Interactive Weather Map
Tropical Storm Tracking
New forecast layout! Learn more

10-Day Weather Forecast

Advertisements
Track Severe Weather on mobile